KSUN/SUN METAR and TAF weather

Enter ICAO airport designator
Station Type Date Time Source
KSUN METAR 2019/10/14 04:55 UTC NOAA

KSUN 140455Z 30009KT 10SM SKC 04/M09 A2996


Station Type Date Time Source
KSUN Decoded METAR 2019/10/14 04:55 UTC NOAA

Hailey, Friedman Memorial Airport, ID, United States (KSUN) 43-30N 114-18W
Oct 14, 2019 - 12:55 AM EDT / 2019.10.14 0455 UTC
Wind: from the WNW (300 degrees) at 10 MPH (9 KT):0
Visibility: 10 mile(s):0
Sky conditions: clear
Temperature: 39 F (4 C)
Dew Point: 15 F (-9 C)
Relative Humidity: 38%
Pressure (altimeter): 29.96 in. Hg (1014 hPa)
ob: KSUN 140455Z 30009KT 10SM SKC 04/M09 A2996
cycle: 5

Station Type Date Time Source
KSUN TAF 2019/10/14 06:22 UTC NOAA

TAF KSUN 140520Z 1406/1512 33011KT P6SM SKC
FM141800 14007KT P6SM FEW150
FM150200 32008KT P6SM SKC
AMD LTD TO CLD VIS AND WIND TIL 141300

Example: see airport list